Αναφορές METAR Αεροδρομίων

 

LGTS - THESSALONIKI - GREECE
Ενημερώθηκε: 18/07/2019 07:20
Αραιές Νεφώσεις
Αραιές Νεφώσεις
 Ανεμος από varies
Ανεμος: varies 6 km/h
Θερμοκρασία: 20°C
Σημείο Δρόσου: 16°C
Υγρασία: 78%
Βαρόμετρο: 1010 hPa
Clouds: Αραιές Νεφώσεις
Visibility: 10 km
Cloud details: Αραιές Νεφώσεις 914 m
2019/07/18 04:20 LGTS 180420Z VRB03KT 9999 FEW030 20/16 Q1010 NOSIG
LGLR - LARTISA - GREECE
Ενημερώθηκε: 18/07/2019 06:50
Μερικώς νεφελώδης
Μερικώς νεφελώδης
 Ανεμος από calm
Ανεμος: Απνοια
Θερμοκρασία: 18°C
Σημείο Δρόσου: 16°C
Υγρασία: 88%
Βαρόμετρο: 1011 hPa
Clouds: Μερικώς νεφελώδης
Visibility: 10 km
Cloud details: Αραιές Νεφώσεις 914 m
Μερικώς νεφελώδης 2438 m
2019/07/18 03:50 LGLR 180350Z 00000KT 9999 FEW030 SCT080 18/16 Q1011 BLU
 
LGKZ - KOZANI - GREECE
Ενημερώθηκε: 18/07/2019 07:20

 Ανεμος από varies
Ανεμος: varies 2 km/h
Θερμοκρασία: 15°C
Σημείο Δρόσου: 9°C
Υγρασία: 68%
Βαρόμετρο: 1014 hPa
2019/07/18 04:20 LGKZ 180420Z AUTO VRB01KT //// // ////// 15/09 Q1014 RE//
LGKV - KAVALA - GREECE
Ενημερώθηκε: 18/07/2019 07:20
Αραιές Νεφώσεις
Αραιές Νεφώσεις
 Ανεμος από calm
Ανεμος: Απνοια
Θερμοκρασία: 20°C
Σημείο Δρόσου: 16°C
Υγρασία: 78%
Βαρόμετρο: 1010 hPa
Clouds: Αραιές Νεφώσεις
Visibility: 10 km
Cloud details: Αραιές Νεφώσεις 762 m
2019/07/18 04:20 LGKV 180420Z 00000KT 9999 FEW025 20/16 Q1010
 
LGIO - IOANNINA - GREECE
Ενημερώθηκε: 17/07/2019 21:50
NOT Current
Αραιές Νεφώσεις
Αραιές Νεφώσεις
 Ανεμος από varies
Ανεμος: varies 0 km/h
Θερμοκρασία: 21°C
Σημείο Δρόσου: 16°C
Υγρασία: 73%
Βαρόμετρο: 1011 hPa
Clouds: Αραιές Νεφώσεις
Visibility: 10 km
Cloud details: Αραιές Νεφώσεις 1219 m
2019/07/17 18:50 LGIO 171850Z /////KT 9999 FEW040 21/16 Q1011
LGBL - BOLOS - GREECE
Ενημερώθηκε: 18/07/2019 07:20
Σχεδόν νεφελώδης
Σχεδόν νεφελώδης
 Ανεμος από Δ
Ανεμος: Δ 9 km/h
Θερμοκρασία: 20°C
Σημείο Δρόσου: 15°C
Υγρασία: 73%
Βαρόμετρο: 1011 hPa
Clouds: Σχεδόν νεφελώδης
Visibility: 10 km
Cloud details: Αραιές Νεφώσεις 914 m
Σχεδόν νεφελώδης 2438 m
2019/07/18 04:20 LGBL 180420Z 26005KT 9999 FEW030 BKN080 20/15 Q1011
 
LGMT - MITILINI - GREECE
Ενημερώθηκε: 18/07/2019 07:20
Αίθριος
Αίθριος
 Ανεμος από ΔΒΔ
Ανεμος: ΔΒΔ 9 km/h
Θερμοκρασία: 23°C
Σημείο Δρόσου: 15°C
Υγρασία: 61%
Βαρόμετρο: 1008 hPa
Περίληψη: Αίθριος
Visibility: greater than 10 km
2019/07/18 04:20 LGMT 180420Z 30005KT 250V350 CAVOK 23/15 Q1008
LGAV - ATHENS - GREECE
Ενημερώθηκε: 18/07/2019 07:20
Αίθριος
Αίθριος
 Ανεμος από varies
Ανεμος: varies 2 km/h
Θερμοκρασία: 23°C
Σημείο Δρόσου: 12°C
Υγρασία: 50%
Βαρόμετρο: 1010 hPa
Περίληψη: Αίθριος
Visibility: greater than 10 km
2019/07/18 04:20 LGAV 180420Z VRB01KT CAVOK 23/12 Q1010 NOSIG
 
LGRP - RODOS - GREECE
Ενημερώθηκε: 18/07/2019 07:20
Αίθριος
Αίθριος
 Ανεμος από ΝΔ
Ανεμος: ΝΔ 7 km/h
Θερμοκρασία: 23°C
Σημείο Δρόσου: 21°C
Υγρασία: 89%
Βαρόμετρο: 1004 hPa
Περίληψη: Αίθριος
Visibility: greater than 10 km
2019/07/18 04:20 LGRP 180420Z 23004KT CAVOK 23/21 Q1004 NOSIG
LGIR - HRAKLIO/KRITI - GREECE
Ενημερώθηκε: 18/07/2019 07:20
Μερικώς νεφελώδης
Μερικώς νεφελώδης
 Ανεμος από ΒΔ
Ανεμος: ΒΔ 24 km/h
Θερμοκρασία: 25°C
Σημείο Δρόσου: 18°C
Υγρασία: 65%
Βαρόμετρο: 1008 hPa
Clouds: Μερικώς νεφελώδης
Visibility: 10 km
Cloud details: Μερικώς νεφελώδης 610 m
2019/07/18 04:20 LGIR 180420Z 31013KT 9999 SCT020 25/18 Q1008 NOSIG
 
LGMK - MIKONOS - GREECE
Ενημερώθηκε: 18/07/2019 07:20
Αίθριος
Αίθριος
 Ανεμος από Β
Ανεμος: Β 22 km/h
Θερμοκρασία: 21°C
Σημείο Δρόσου: 10°C
Υγρασία: 50%
Βαρόμετρο: 1007 hPa
Περίληψη: Αίθριος
Visibility: greater than 10 km
2019/07/18 04:20 LGMK 180420Z 36012KT CAVOK 21/10 Q1007
LGKR - KERKIRA - GREECE
Ενημερώθηκε: 18/07/2019 07:20
Αίθριος
Αίθριος
 Ανεμος από Δ
Ανεμος: Δ 4 km/h
Θερμοκρασία: 19°C
Σημείο Δρόσου: 17°C
Υγρασία: 88%
Βαρόμετρο: 1010 hPa
Περίληψη: Αίθριος
Visibility: greater than 10 km
2019/07/18 04:20 LGKR 180420Z 26002KT CAVOK 19/17 Q1010 NOSIG